Time;durP1;ratioP1;P1;durP2;ratioP2;P2;SDS_P1;SDS_P2;PMS_P1;PMS_P2;Temp;Humidity;BMP_temperature;BMP_pressure;BME280_temperature;BME280_humidity;BME280_pressure;Samples;Min_cycle;Max_cycle;Signal;HPM_P1;HPM_P2
2022/12/15 00:38:56;;;;;;;42.92;24.77;;;;;;;;;;4992151;28;20111;-69
2022/12/15 00:41:21;;;;;;;39.72;25.33;;;;;;;;;;4991507;28;20948;-69
2022/12/15 00:43:46;;;;;;;39.97;25.67;;;;;;;;;;4990621;28;20243;-69
2022/12/15 00:48:55;;;;;;;41.15;25.77;;;;;;;;;;4992147;28;20947;-69
2022/12/15 00:51:21;;;;;;;38.55;25.45;;;;;;;;;;4993472;28;20140;-69
2022/12/15 01:21:07;;;;;;;40.15;25.05;;;;;;;;;;4988574;28;20048;-68
2022/12/15 01:23:33;;;;;;;40.08;23.75;;;;;;;;;;4977637;28;20128;-69
2022/12/15 01:25:58;;;;;;;36.78;23.63;;;;;;;;;;4972817;28;20853;-70
2022/12/15 01:28:23;;;;;;;40.40;25.08;;;;;;;;;;4987534;28;20016;-70
2022/12/15 01:30:49;;;;;;;36.35;24.13;;;;;;;;;;4979522;28;20022;-70
2022/12/15 01:33:15;;;;;;;36.72;24.52;;;;;;;;;;4975576;28;20810;-70
2022/12/15 01:35:40;;;;;;;42.95;26.08;;;;;;;;;;4983065;28;20021;-70
2022/12/15 01:38:06;;;;;;;40.22;25.05;;;;;;;;;;4982532;28;20931;-70
2022/12/15 01:40:48;;;;;;;38.70;24.48;;;;;;;;;;4979931;28;20036;-69
2022/12/15 01:43:21;;;;;;;37.35;25.45;;;;;;;;;;4975925;28;20022;-69
2022/12/15 01:45:50;;;;;;;41.03;24.40;;;;;;;;;;4987528;28;20048;-69
2022/12/15 01:48:21;;;;;;;42.97;25.98;;;;;;;;;;4984769;28;20018;-69
2022/12/15 01:50:52;;;;;;;41.72;26.00;;;;;;;;;;4988159;28;20127;-69
2022/12/15 01:53:18;;;;;;;43.13;27.00;;;;;;;;;;4990247;28;20091;-69
2022/12/15 01:55:44;;;;;;;38.53;24.52;;;;;;;;;;4980351;28;20112;-68
2022/12/15 01:58:11;;;;;;;42.45;26.40;;;;;;;;;;4975433;28;20033;-68
2022/12/15 02:00:36;;;;;;;41.70;25.40;;;;;;;;;;4979247;28;20104;-68
2022/12/15 02:03:03;;;;;;;47.30;27.67;;;;;;;;;;4978137;28;20543;-68
2022/12/15 02:05:29;;;;;;;37.08;25.10;;;;;;;;;;4988610;28;20013;-68
2022/12/15 02:07:54;;;;;;;38.63;23.20;;;;;;;;;;4978547;28;20021;-69
2022/12/15 02:10:20;;;;;;;48.75;26.52;;;;;;;;;;4970713;28;20049;-69
2022/12/15 02:13:00;;;;;;;37.33;24.88;;;;;;;;;;4980660;28;20033;-69
2022/12/15 02:15:28;;;;;;;39.45;25.75;;;;;;;;;;4982837;28;20137;-69
2022/12/15 02:17:53;;;;;;;43.22;25.92;;;;;;;;;;4969926;28;20883;-69
2022/12/15 02:20:39;;;;;;;41.40;25.48;;;;;;;;;;4987342;28;20032;-69
2022/12/15 02:23:28;;;;;;;41.90;25.38;;;;;;;;;;4959196;28;20703;-69
2022/12/15 02:26:13;;;;;;;39.33;24.65;;;;;;;;;;4986930;28;20020;-69
2022/12/15 02:28:38;;;;;;;;;;;;;;;;;;4978340;28;20025;-69
2022/12/15 02:33:53;;;;;;;35.50;22.70;;;;;;;;;;4981056;28;20056;-69
2022/12/15 02:36:25;;;;;;;41.15;25.75;;;;;;;;;;4974956;28;20052;-69
2022/12/15 02:38:50;;;;;;;38.83;24.95;;;;;;;;;;4980515;28;20140;-69
2022/12/15 02:41:31;;;;;;;39.10;25.58;;;;;;;;;;4985739;28;20033;-68
2022/12/15 02:43:56;;;;;;;38.83;25.45;;;;;;;;;;4972325;28;20018;-69
2022/12/15 02:46:30;;;;;;;43.17;24.67;;;;;;;;;;4989774;28;20397;-70
2022/12/15 02:48:55;;;;;;;;;;;;;;;;;;4990620;28;20032;-70
2022/12/15 02:51:38;;;;;;;43.65;26.17;;;;;;;;;;4988501;28;19988;-69
2022/12/15 02:54:30;;;;;;;47.38;28.02;;;;;;;;;;4990108;28;20021;-69
2022/12/15 02:56:55;;;;;;;48.03;28.10;;;;;;;;;;4978911;28;20845;-69
2022/12/15 02:59:29;;;;;;;41.38;25.90;;;;;;;;;;4990954;28;20056;-69
2022/12/15 03:01:57;;;;;;;43.03;27.20;;;;;;;;;;4990031;28;20017;-69
2022/12/15 03:04:22;;;;;;;42.45;27.88;;;;;;;;;;4991031;28;20029;-69
2022/12/15 03:06:56;;;;;;;42.15;28.23;;;;;;;;;;4990630;28;20072;-69
2022/12/15 03:09:22;;;;;;;43.65;28.63;;;;;;;;;;4992179;28;20396;-69
2022/12/15 03:11:47;;;;;;;47.38;29.50;;;;;;;;;;4991019;28;20867;-69
2022/12/15 03:14:12;;;;;;;48.38;28.40;;;;;;;;;;4989094;28;20022;-69
2022/12/15 03:16:38;;;;;;;45.20;26.10;;;;;;;;;;4983654;28;20363;-69
2022/12/15 03:19:03;;;;;;;43.33;27.27;;;;;;;;;;4986599;28;20065;-69
2022/12/15 03:21:28;;;;;;;43.30;26.83;;;;;;;;;;4987886;28;20116;-69
2022/12/15 03:23:53;;;;;;;40.47;23.70;;;;;;;;;;4987037;28;20107;-69
2022/12/15 03:26:19;;;;;;;37.53;26.50;;;;;;;;;;4984016;28;20030;-69
2022/12/15 03:28:44;;;;;;;40.92;27.25;;;;;;;;;;4981360;28;20010;-69
2022/12/15 03:31:09;;;;;;;41.33;26.13;;;;;;;;;;4985633;28;20021;-70
2022/12/15 03:33:34;;;;;;;43.72;26.95;;;;;;;;;;4987531;28;20025;-69
2022/12/15 03:36:00;;;;;;;41.60;26.50;;;;;;;;;;4989315;28;20013;-70
2022/12/15 03:38:25;;;;;;;41.85;27.17;;;;;;;;;;4987859;28;20045;-70
2022/12/15 03:40:50;;;;;;;36.38;23.98;;;;;;;;;;4989186;28;20129;-70
2022/12/15 03:43:15;;;;;;;45.63;26.42;;;;;;;;;;4989214;28;20109;-70
2022/12/15 03:45:41;;;;;;;42.72;28.40;;;;;;;;;;4989752;28;20856;-70
2022/12/15 03:48:06;;;;;;;43.35;26.73;;;;;;;;;;4984049;28;21256;-70
2022/12/15 03:50:31;;;;;;;47.08;28.75;;;;;;;;;;4989012;28;20021;-70
2022/12/15 03:52:58;;;;;;;46.35;27.30;;;;;;;;;;4983973;28;20161;-69
2022/12/15 03:55:23;;;;;;;40.67;26.38;;;;;;;;;;4984504;28;20025;-70
2022/12/15 03:57:49;;;;;;;48.83;28.42;;;;;;;;;;4990793;28;20057;-69
2022/12/15 04:00:14;;;;;;;50.10;28.65;;;;;;;;;;4981785;28;20022;-70
2022/12/15 04:02:40;;;;;;;42.25;26.83;;;;;;;;;;4989789;28;20021;-70
2022/12/15 04:05:06;;;;;;;38.78;27.67;;;;;;;;;;4990473;28;20030;-70
2022/12/15 04:07:31;;;;;;;40.40;26.77;;;;;;;;;;4988533;28;20810;-70
2022/12/15 04:09:57;;;;;;;40.00;26.92;;;;;;;;;;4974131;28;20029;-70
2022/12/15 04:12:22;;;;;;;43.63;28.13;;;;;;;;;;4984337;28;20610;-69
2022/12/15 04:14:47;;;;;;;47.40;28.35;;;;;;;;;;4985525;28;20025;-69
2022/12/15 04:17:13;;;;;;;40.53;26.92;;;;;;;;;;4977688;28;20087;-71
2022/12/15 04:22:22;;;;;;;45.72;28.48;;;;;;;;;;4972309;28;20095;-69
2022/12/15 05:33:10;;;;;;;;;;;;;;;;;;4979282;28;20927;-72
2022/12/15 05:35:35;;;;;;;50.05;30.88;;;;;;;;;;4989398;28;20446;-71
2022/12/15 05:38:00;;;;;;;51.42;31.48;;;;;;;;;;4971157;28;20853;-71
2022/12/15 05:40:26;;;;;;;51.33;30.00;;;;;;;;;;4980376;28;20964;-71
2022/12/15 05:42:51;;;;;;;51.03;31.70;;;;;;;;;;4985951;28;20127;-71
2022/12/15 05:45:16;;;;;;;50.35;30.77;;;;;;;;;;4981483;28;20034;-71
2022/12/15 05:47:41;;;;;;;47.72;31.25;;;;;;;;;;4988324;28;20068;-71
2022/12/15 05:50:07;;;;;;;48.85;31.05;;;;;;;;;;4988361;28;20029;-71
2022/12/15 05:52:32;;;;;;;56.35;33.33;;;;;;;;;;4987559;28;20887;-69
2022/12/15 05:54:57;;;;;;;46.28;30.35;;;;;;;;;;4989239;28;20033;-69
2022/12/15 05:57:23;;;;;;;51.40;32.35;;;;;;;;;;4988772;28;20531;-72
2022/12/15 05:59:48;;;;;;;52.22;31.10;;;;;;;;;;4989513;28;20052;-71
2022/12/15 06:02:13;;;;;;;55.78;34.00;;;;;;;;;;4990137;28;20023;-71
2022/12/15 06:04:38;;;;;;;51.80;32.78;;;;;;;;;;4989153;28;20826;-70
2022/12/15 06:07:04;;;;;;;48.03;30.33;;;;;;;;;;4982638;28;20022;-70
2022/12/15 06:09:29;;;;;;;47.88;30.15;;;;;;;;;;4976339;28;20998;-70
2022/12/15 06:11:54;;;;;;;49.70;30.70;;;;;;;;;;4988812;28;20029;-71
2022/12/15 06:14:19;;;;;;;48.60;30.95;;;;;;;;;;4978961;28;20946;-71
2022/12/15 06:16:45;;;;;;;41.78;28.65;;;;;;;;;;4983865;28;20140;-70
2022/12/15 06:19:10;;;;;;;43.38;29.40;;;;;;;;;;4976064;28;20144;-70
2022/12/15 06:21:36;;;;;;;51.55;30.80;;;;;;;;;;4983618;28;20091;-71
2022/12/15 06:24:02;;;;;;;46.25;32.88;;;;;;;;;;4988693;28;20557;-70
2022/12/15 06:26:29;;;;;;;58.72;30.25;;;;;;;;;;4988043;28;20354;-70
2022/12/15 06:28:55;;;;;;;51.00;29.88;;;;;;;;;;4981546;28;20157;-70
2022/12/15 06:31:24;;;;;;;52.05;31.40;;;;;;;;;;4995263;28;20025;-69
2022/12/15 06:33:49;;;;;;;51.53;31.88;;;;;;;;;;4997016;28;20013;-70
2022/12/15 06:36:15;;;;;;;48.72;29.95;;;;;;;;;;4990536;28;20037;-69
2022/12/15 06:38:44;;;;;;;49.78;31.83;;;;;;;;;;4993593;28;20145;-69
2022/12/15 06:41:11;;;;;;;45.15;28.98;;;;;;;;;;4993292;28;20017;-70
2022/12/15 06:43:36;;;;;;;52.67;29.50;;;;;;;;;;4992318;28;20021;-70
2022/12/15 06:46:02;;;;;;;50.00;30.73;;;;;;;;;;4994853;28;20215;-70
2022/12/15 06:48:27;;;;;;;50.50;32.42;;;;;;;;;;4990502;28;20140;-70
2022/12/15 06:50:53;;;;;;;46.05;31.23;;;;;;;;;;4985932;28;20029;-69
2022/12/15 06:53:19;;;;;;;55.17;33.28;;;;;;;;;;4991765;28;20097;-70
2022/12/15 06:55:44;;;;;;;51.25;31.92;;;;;;;;;;4992035;28;20886;-69
2022/12/15 06:58:13;;;;;;;61.08;32.45;;;;;;;;;;4990895;28;20025;-70
2022/12/15 07:00:40;;;;;;;56.08;33.35;;;;;;;;;;4993365;28;20049;-69
2022/12/15 07:03:12;;;;;;;50.97;32.38;;;;;;;;;;4992396;28;20057;-70
2022/12/15 07:05:38;;;;;;;50.90;29.75;;;;;;;;;;4991179;28;20049;-69
2022/12/15 07:08:03;;;;;;;54.72;34.83;;;;;;;;;;4991990;28;20067;-70
2022/12/15 07:10:28;;;;;;;54.40;32.17;;;;;;;;;;4990317;28;20351;-68
2022/12/15 07:12:57;;;;;;;47.08;30.08;;;;;;;;;;4989645;28;20860;-69
2022/12/15 07:15:22;;;;;;;55.60;31.08;;;;;;;;;;4991578;28;20855;-70
2022/12/15 07:17:47;;;;;;;61.25;35.22;;;;;;;;;;4988745;28;20092;-70
2022/12/15 07:20:13;;;;;;;55.63;33.92;;;;;;;;;;4989518;28;20024;-69
2022/12/15 07:22:38;;;;;;;53.47;33.15;;;;;;;;;;4992034;28;20080;-70
2022/12/15 07:25:04;;;;;;;53.97;32.88;;;;;;;;;;4989759;28;20045;-70
2022/12/15 07:27:29;;;;;;;59.53;34.38;;;;;;;;;;4989417;28;20892;-70
2022/12/15 07:29:54;;;;;;;51.90;32.55;;;;;;;;;;4988408;28;20025;-69
2022/12/15 07:32:19;;;;;;;55.50;31.60;;;;;;;;;;4987475;28;20017;-69
2022/12/15 07:34:45;;;;;;;52.78;32.25;;;;;;;;;;4987140;28;20946;-70
2022/12/15 07:37:10;;;;;;;52.03;32.95;;;;;;;;;;4979058;28;20950;-70
2022/12/15 07:39:35;;;;;;;54.03;34.08;;;;;;;;;;4978195;28;20014;-70
2022/12/15 07:42:01;;;;;;;55.00;34.90;;;;;;;;;;4984149;28;20019;-70
2022/12/15 07:44:26;;;;;;;58.05;34.53;;;;;;;;;;4988750;28;20040;-70
2022/12/15 07:46:51;;;;;;;57.17;33.53;;;;;;;;;;4979925;28;20017;-69
2022/12/15 07:49:17;;;;;;;53.47;31.17;;;;;;;;;;4986125;28;20075;-70
2022/12/15 07:51:42;;;;;;;57.28;35.03;;;;;;;;;;4988666;28;20014;-69
2022/12/15 07:54:11;;;;;;;48.92;32.67;;;;;;;;;;4989802;28;20021;-70
2022/12/15 07:56:37;;;;;;;63.10;35.58;;;;;;;;;;4988353;28;20013;-69
2022/12/15 07:59:03;;;;;;;58.45;36.00;;;;;;;;;;4989914;28;20021;-69
2022/12/15 08:01:28;;;;;;;51.60;33.15;;;;;;;;;;5031050;28;20728;-69
2022/12/15 08:03:53;;;;;;;55.80;35.15;;;;;;;;;;5033946;28;20100;-69
2022/12/15 08:06:18;;;;;;;54.20;33.63;;;;;;;;;;5029329;28;20022;-69
2022/12/15 08:08:44;;;;;;;69.18;34.45;;;;;;;;;;5021520;28;20379;-69
2022/12/15 08:11:11;;;;;;;57.78;32.92;;;;;;;;;;5026637;28;20134;-69
2022/12/15 08:13:37;;;;;;;59.95;32.05;;;;;;;;;;5022861;28;20014;-69
2022/12/15 08:16:02;;;;;;;56.10;33.92;;;;;;;;;;5024251;28;20490;-69
2022/12/15 08:18:28;;;;;;;59.63;34.58;;;;;;;;;;5026865;28;20029;-69
2022/12/15 08:20:53;;;;;;;48.90;33.95;;;;;;;;;;5028398;28;20104;-69
2022/12/15 08:23:18;;;;;;;62.63;36.58;;;;;;;;;;5024796;28;20018;-69
2022/12/15 08:25:44;;;;;;;57.97;34.97;;;;;;;;;;5028480;28;20052;-69
2022/12/15 08:28:09;;;;;;;55.35;34.78;;;;;;;;;;5023609;28;20025;-69
2022/12/15 08:30:35;;;;;;;62.05;35.33;;;;;;;;;;5028068;28;20049;-69
2022/12/15 08:33:01;;;;;;;53.25;32.53;;;;;;;;;;5022032;28;20024;-69
2022/12/15 08:35:26;;;;;;;53.45;35.22;;;;;;;;;;5033164;28;20029;-69
2022/12/15 08:37:52;;;;;;;61.88;35.38;;;;;;;;;;5022288;28;20091;-69
2022/12/15 08:40:17;;;;;;;60.70;35.42;;;;;;;;;;5027872;28;20025;-69
2022/12/15 08:42:42;;;;;;;56.53;34.70;;;;;;;;;;5021193;28;20362;-69
2022/12/15 08:45:08;;;;;;;56.72;36.08;;;;;;;;;;5029998;28;20014;-69
2022/12/15 08:47:33;;;;;;;58.05;37.28;;;;;;;;;;5033763;28;20379;-69
2022/12/15 08:49:58;;;;;;;65.10;38.53;;;;;;;;;;5014696;28;20879;-69
2022/12/15 08:52:23;;;;;;;65.25;37.42;;;;;;;;;;5025279;28;20163;-69
2022/12/15 08:54:49;;;;;;;53.78;35.17;;;;;;;;;;5031269;28;20029;-69
2022/12/15 08:57:14;;;;;;;64.75;37.35;;;;;;;;;;5031327;28;20028;-69
2022/12/15 08:59:39;;;;;;;54.17;35.72;;;;;;;;;;5031328;28;20411;-69
2022/12/15 09:02:05;;;;;;;57.65;36.55;;;;;;;;;;5031823;28;20464;-69
2022/12/15 09:04:31;;;;;;;58.33;35.67;;;;;;;;;;5032273;28;20039;-69
2022/12/15 09:06:56;;;;;;;57.15;36.67;;;;;;;;;;5033055;28;20026;-69
2022/12/15 09:09:21;;;;;;;61.72;38.65;;;;;;;;;;5014839;28;20014;-69
2022/12/15 09:11:47;;;;;;;56.33;36.60;;;;;;;;;;5026735;28;20494;-69
2022/12/15 09:14:13;;;;;;;61.70;36.63;;;;;;;;;;5027080;28;20380;-69
2022/12/15 09:16:38;;;;;;;59.22;38.15;;;;;;;;;;5026716;28;20025;-69
2022/12/15 09:19:04;;;;;;;60.70;38.45;;;;;;;;;;4996888;28;20022;-69
2022/12/15 09:21:29;;;;;;;60.75;39.40;;;;;;;;;;5000453;28;20365;-69
2022/12/15 09:23:59;;;;;;;59.05;39.88;;;;;;;;;;5021422;28;20018;-69
2022/12/15 09:26:24;;;;;;;59.70;38.80;;;;;;;;;;5022017;28;20022;-69
2022/12/15 09:28:50;;;;;;;69.07;41.53;;;;;;;;;;5013102;28;20021;-69
2022/12/15 09:31:15;;;;;;;59.63;41.65;;;;;;;;;;5025679;28;20095;-69
2022/12/15 09:33:41;;;;;;;68.65;41.53;;;;;;;;;;5014521;28;20487;-68
2022/12/15 09:36:06;;;;;;;63.42;42.65;;;;;;;;;;5022015;28;20017;-69
2022/12/15 09:38:32;;;;;;;78.10;47.60;;;;;;;;;;5015130;28;20021;-69
2022/12/15 09:41:05;;;;;;;74.80;46.45;;;;;;;;;;5018668;28;20021;-69
2022/12/15 09:43:31;;;;;;;73.40;47.15;;;;;;;;;;5016913;28;20013;-70
2022/12/15 09:46:02;;;;;;;80.32;50.22;;;;;;;;;;5020398;28;20013;-69
2022/12/15 09:48:33;;;;;;;81.32;51.97;;;;;;;;;;5031644;28;20021;-70
2022/12/15 09:51:00;;;;;;;77.53;51.25;;;;;;;;;;5031547;28;20029;-70
2022/12/15 09:53:25;;;;;;;80.97;54.30;;;;;;;;;;5029259;28;20375;-70
2022/12/15 09:55:53;;;;;;;72.85;50.33;;;;;;;;;;5031885;28;20033;-69
2022/12/15 09:58:32;;;;;;;74.03;48.40;;;;;;;;;;5030590;28;20379;-69
2022/12/15 10:01:03;;;;;;;67.65;45.08;;;;;;;;;;5019791;28;20407;-69
2022/12/15 10:03:43;;;;;;;67.47;45.13;;;;;;;;;;5023613;28;20017;-70
2022/12/15 10:06:14;;;;;;;68.60;45.28;;;;;;;;;;5012466;28;20053;-70
2022/12/15 10:08:41;;;;;;;68.68;43.88;;;;;;;;;;5011404;28;20083;-70
2022/12/15 10:11:18;;;;;;;66.38;43.67;;;;;;;;;;5026628;28;20010;-70
2022/12/15 10:14:05;;;;;;;76.18;46.80;;;;;;;;;;5016490;28;20021;-70
2022/12/15 10:16:33;;;;;;;67.43;43.35;;;;;;;;;;5013188;28;20018;-70
2022/12/15 10:19:05;;;;;;;60.83;41.10;;;;;;;;;;5021442;28;20152;-70
2022/12/15 10:21:31;;;;;;;58.42;40.05;;;;;;;;;;5018329;28;20014;-70
2022/12/15 10:24:01;;;;;;;73.05;44.78;;;;;;;;;;5005658;28;20075;-70
2022/12/15 10:26:30;;;;;;;66.72;41.38;;;;;;;;;;5012167;28;20025;-70
2022/12/15 10:29:25;;;;;;;61.70;39.53;;;;;;;;;;5012983;28;20117;-70
2022/12/15 10:31:50;;;;;;;58.50;37.25;;;;;;;;;;5000984;28;20029;-70
2022/12/15 10:34:27;;;;;;;54.47;36.85;;;;;;;;;;5014940;28;20029;-69
2022/12/15 10:36:53;;;;;;;56.92;35.72;;;;;;;;;;5015111;28;20076;-69
2022/12/15 10:39:19;;;;;;;58.72;36.60;;;;;;;;;;5022008;28;20030;-70
2022/12/15 10:41:45;;;;;;;57.95;36.65;;;;;;;;;;5014707;28;20022;-70
2022/12/15 10:44:22;;;;;;;52.38;35.72;;;;;;;;;;5012969;28;20041;-69
2022/12/15 10:46:53;;;;;;;58.13;36.53;;;;;;;;;;5013369;28;20022;-69
2022/12/15 10:49:35;;;;;;;54.15;36.17;;;;;;;;;;5083640;28;20125;-69
2022/12/15 10:52:01;;;;;;;51.25;33.95;;;;;;;;;;5024351;28;20032;-69
2022/12/15 10:54:30;;;;;;;49.42;34.13;;;;;;;;;;5060662;28;20017;-69
2022/12/15 10:56:57;;;;;;;48.85;32.45;;;;;;;;;;5056800;28;20082;-72
2022/12/15 10:59:33;;;;;;;54.25;32.38;;;;;;;;;;5065265;28;20049;-68
2022/12/15 11:02:16;;;;;;;47.67;31.75;;;;;;;;;;5060920;28;20013;-69
2022/12/15 11:04:53;;;;;;;48.30;32.83;;;;;;;;;;5055380;28;20531;-69
2022/12/15 11:07:18;;;;;;;53.40;32.83;;;;;;;;;;5054148;28;20078;-69
2022/12/15 11:09:45;;;;;;;46.30;31.08;;;;;;;;;;5067283;28;20475;-69
2022/12/15 11:15:22;;;;;;;51.17;33.25;;;;;;;;;;5066481;28;20449;-69
2022/12/15 11:18:00;;;;;;;51.55;31.90;;;;;;;;;;5067077;28;20029;-69
2022/12/15 11:20:37;;;;;;;46.50;31.08;;;;;;;;;;5062209;28;20063;-69
2022/12/15 11:23:21;;;;;;;45.40;28.85;;;;;;;;;;5064070;28;20147;-69
2022/12/15 11:25:50;;;;;;;44.35;30.13;;;;;;;;;;5054403;28;20663;-69
2022/12/15 11:28:19;;;;;;;43.13;28.98;;;;;;;;;;5067639;28;20021;-69
2022/12/15 11:30:47;;;;;;;36.92;26.48;;;;;;;;;;5059607;28;20100;-69
2022/12/15 11:33:13;;;;;;;31.50;23.30;;;;;;;;;;5060462;28;20021;-69
2022/12/15 11:35:57;;;;;;;32.75;23.90;;;;;;;;;;5067897;28;20162;-70
2022/12/15 11:38:34;;;;;;;41.00;26.23;;;;;;;;;;5055529;28;20016;-69
2022/12/15 11:41:19;;;;;;;40.67;25.65;;;;;;;;;;5066929;28;20077;-69
2022/12/15 11:44:02;;;;;;;40.05;23.80;;;;;;;;;;5065782;28;20040;-69
2022/12/15 11:46:38;;;;;;;36.85;26.08;;;;;;;;;;5061397;28;20060;-69
2022/12/15 11:49:21;;;;;;;36.40;24.02;;;;;;;;;;5067134;28;20041;-69
2022/12/15 11:51:53;;;;;;;30.27;19.98;;;;;;;;;;5066781;28;20048;-69
2022/12/15 11:54:36;;;;;;;27.13;19.02;;;;;;;;;;5066469;28;20017;-69
2022/12/15 11:57:13;;;;;;;26.23;18.70;;;;;;;;;;5064680;28;20017;-69
2022/12/15 11:59:47;;;;;;;28.58;20.55;;;;;;;;;;5059979;28;20047;-70
2022/12/15 12:02:12;;;;;;;;;;;;;;;;;;5053888;28;20131;-70
2022/12/15 12:04:41;;;;;;;27.00;18.02;;;;;;;;;;5053033;28;19936;-69
2022/12/15 12:07:24;;;;;;;21.80;16.70;;;;;;;;;;5053633;28;20013;-69
2022/12/15 12:10:02;;;;;;;28.85;18.80;;;;;;;;;;5053074;28;20124;-69
2022/12/15 12:12:47;;;;;;;29.10;19.50;;;;;;;;;;5049724;28;20037;-69
2022/12/15 12:15:13;;;;;;;30.20;18.73;;;;;;;;;;5049369;28;20033;-69
2022/12/15 12:17:43;;;;;;;27.43;19.33;;;;;;;;;;5053445;28;20019;-70
2022/12/15 12:20:22;;;;;;;31.02;20.63;;;;;;;;;;5053009;28;20342;-69
2022/12/15 12:22:48;;;;;;;32.75;19.80;;;;;;;;;;5051061;28;20040;-69
2022/12/15 12:25:23;;;;;;;34.50;19.38;;;;;;;;;;5044738;28;20013;-69
2022/12/15 12:27:53;;;;;;;28.95;20.13;;;;;;;;;;5053133;28;20044;-69
2022/12/15 12:30:20;;;;;;;36.20;22.15;;;;;;;;;;5049909;28;20017;-69
2022/12/15 12:32:46;;;;;;;38.30;21.48;;;;;;;;;;5046550;28;20024;-69
2022/12/15 12:35:16;;;;;;;34.45;20.92;;;;;;;;;;5047747;28;20352;-69
2022/12/15 12:37:43;;;;;;;27.27;18.88;;;;;;;;;;5049012;28;20078;-69
2022/12/15 12:40:17;;;;;;;23.00;15.07;;;;;;;;;;5045561;28;20146;-69
2022/12/15 12:42:47;;;;;;;23.77;16.75;;;;;;;;;;5046965;28;20029;-69
2022/12/15 12:45:13;;;;;;;24.73;16.20;;;;;;;;;;5048324;28;20043;-69
2022/12/15 12:47:40;;;;;;;30.70;16.80;;;;;;;;;;5045353;28;20033;-69
2022/12/15 12:50:18;;;;;;;24.88;16.35;;;;;;;;;;5050069;28;20131;-69
2022/12/15 12:52:56;;;;;;;23.92;16.40;;;;;;;;;;5048836;28;20044;-69
2022/12/15 12:55:37;;;;;;;22.80;15.75;;;;;;;;;;5043446;28;20017;-69
2022/12/15 12:58:02;;;;;;;21.17;15.13;;;;;;;;;;5049098;28;20017;-69
2022/12/15 13:00:29;;;;;;;21.80;14.25;;;;;;;;;;5049879;28;20368;-69
2022/12/15 13:02:54;;;;;;;25.33;15.27;;;;;;;;;;5048286;28;20023;-69
2022/12/15 13:05:26;;;;;;;20.67;14.70;;;;;;;;;;5047977;28;20037;-69
2022/12/15 13:07:54;;;;;;;21.30;12.80;;;;;;;;;;5035296;28;20029;-69
2022/12/15 13:10:20;;;;;;;17.83;11.23;;;;;;;;;;5049147;28;20150;-69
2022/12/15 13:12:46;;;;;;;16.80;11.07;;;;;;;;;;5046128;28;20029;-69
2022/12/15 13:15:13;;;;;;;17.63;9.43;;;;;;;;;;5047915;28;20029;-69
2022/12/15 13:17:47;;;;;;;13.23;8.65;;;;;;;;;;5048138;28;20162;-69
2022/12/15 13:20:21;;;;;;;11.93;7.67;;;;;;;;;;5048310;28;20029;-69
2022/12/15 13:22:46;;;;;;;16.88;9.70;;;;;;;;;;5047305;28;20029;-69
2022/12/15 13:25:26;;;;;;;18.17;9.85;;;;;;;;;;5049570;28;20082;-69
2022/12/15 13:27:56;;;;;;;15.90;9.75;;;;;;;;;;5048657;28;20037;-69
2022/12/15 13:30:22;;;;;;;23.35;12.55;;;;;;;;;;5049110;28;20051;-69
2022/12/15 13:32:52;;;;;;;19.92;12.50;;;;;;;;;;5048375;28;20029;-69
2022/12/15 13:35:30;;;;;;;21.05;11.77;;;;;;;;;;5033788;28;20136;-69
2022/12/15 13:38:02;;;;;;;22.30;12.13;;;;;;;;;;5048080;28;20840;-69
2022/12/15 13:40:33;;;;;;;19.08;12.02;;;;;;;;;;5047066;28;20033;-69
2022/12/15 13:43:05;;;;;;;20.58;13.55;;;;;;;;;;5047352;28;20031;-69
2022/12/15 13:45:31;;;;;;;21.10;13.63;;;;;;;;;;5039942;28;20025;-69
2022/12/15 13:47:57;;;;;;;24.00;15.05;;;;;;;;;;5044837;28;20041;-69
2022/12/15 13:50:30;;;;;;;23.27;13.52;;;;;;;;;;5037765;28;20036;-69
2022/12/15 13:52:56;;;;;;;27.02;12.80;;;;;;;;;;5041917;28;20024;-69
2022/12/15 13:55:23;;;;;;;20.80;12.82;;;;;;;;;;5026092;28;20065;-68
2022/12/15 13:57:59;;;;;;;29.67;12.70;;;;;;;;;;5007433;28;20013;-69
2022/12/15 14:00:24;;;;;;;19.80;10.70;;;;;;;;;;5006382;28;20045;-69
2022/12/15 14:02:50;;;;;;;16.25;10.98;;;;;;;;;;5020324;28;20016;-69
2022/12/15 14:05:21;;;;;;;17.35;11.57;;;;;;;;;;5048637;28;20025;-68
2022/12/15 14:07:48;;;;;;;20.75;10.10;;;;;;;;;;5044263;28;20025;-68
2022/12/15 14:10:21;;;;;;;17.20;8.65;;;;;;;;;;5038364;28;20017;-68
2022/12/15 14:12:47;;;;;;;11.00;8.43;;;;;;;;;;5036590;28;20088;-69
2022/12/15 14:15:14;;;;;;;15.68;9.80;;;;;;;;;;5044913;28;20021;-69
2022/12/15 14:17:39;;;;;;;13.52;8.60;;;;;;;;;;5046204;28;20025;-69
2022/12/15 14:20:16;;;;;;;17.60;9.60;;;;;;;;;;5044364;28;20021;-68
2022/12/15 14:22:42;;;;;;;17.42;11.85;;;;;;;;;;5046630;28;20383;-69
2022/12/15 14:25:20;;;;;;;16.08;12.23;;;;;;;;;;5044651;28;20025;-68
2022/12/15 14:27:46;;;;;;;21.70;11.73;;;;;;;;;;5034447;28;20048;-69
2022/12/15 14:30:12;;;;;;;20.10;11.32;;;;;;;;;;5043579;28;20013;-68
2022/12/15 14:32:38;;;;;;;17.83;11.15;;;;;;;;;;5045061;28;20103;-69
2022/12/15 14:35:04;;;;;;;13.75;9.38;;;;;;;;;;5046694;28;20550;-69
2022/12/15 14:37:29;;;;;;;13.10;9.55;;;;;;;;;;5045604;28;20020;-69
2022/12/15 14:39:54;;;;;;;16.48;10.35;;;;;;;;;;5040384;28;20123;-68
2022/12/15 14:42:24;;;;;;;14.45;10.02;;;;;;;;;;5048213;28;20352;-69
2022/12/15 14:44:50;;;;;;;15.73;10.15;;;;;;;;;;5045151;28;20032;-68
2022/12/15 14:47:20;;;;;;;22.80;11.85;;;;;;;;;;5046625;28;20032;-71
2022/12/15 14:49:47;;;;;;;20.98;11.65;;;;;;;;;;5040590;28;20103;-67
2022/12/15 14:52:32;;;;;;;18.45;11.52;;;;;;;;;;5043555;28;20025;-67
2022/12/15 14:54:59;;;;;;;19.30;11.30;;;;;;;;;;5044533;28;20043;-68
2022/12/15 14:57:26;;;;;;;18.98;12.70;;;;;;;;;;5048002;28;20035;-68
2022/12/15 14:59:52;;;;;;;17.92;12.07;;;;;;;;;;5045979;28;20017;-66
2022/12/15 15:02:25;;;;;;;22.75;13.57;;;;;;;;;;5034132;28;20834;-68
2022/12/15 15:04:58;;;;;;;25.10;13.83;;;;;;;;;;5044752;28;20025;-69
2022/12/15 15:07:25;;;;;;;26.57;13.47;;;;;;;;;;5050421;28;20108;-69
2022/12/15 15:09:51;;;;;;;18.25;12.00;;;;;;;;;;5050240;28;20032;-69
2022/12/15 15:12:18;;;;;;;21.05;12.95;;;;;;;;;;5029454;28;20025;-67
2022/12/15 15:14:43;;;;;;;26.90;12.55;;;;;;;;;;5004855;28;20049;-68
2022/12/15 15:17:11;;;;;;;19.15;12.13;;;;;;;;;;4997509;28;20226;-70
2022/12/15 15:19:37;;;;;;;22.38;12.98;;;;;;;;;;5046146;28;20025;-66
2022/12/15 15:22:03;;;;;;;26.88;16.50;;;;;;;;;;5044372;28;20463;-66
2022/12/15 15:24:29;;;;;;;30.88;18.05;;;;;;;;;;5049056;28;20040;-67
2022/12/15 15:27:14;;;;;;;34.97;21.27;;;;;;;;;;5044840;28;20021;-67
2022/12/15 15:29:39;;;;;;;36.90;22.30;;;;;;;;;;5046575;28;20025;-67
2022/12/15 15:32:06;;;;;;;32.67;19.77;;;;;;;;;;5046130;28;20502;-66
2022/12/15 15:34:31;;;;;;;31.63;18.65;;;;;;;;;;5047556;28;20039;-65
2022/12/15 15:36:57;;;;;;;30.65;19.63;;;;;;;;;;5051655;28;20017;-65
2022/12/15 15:39:22;;;;;;;36.42;19.98;;;;;;;;;;5050774;28;20029;-67
2022/12/15 15:41:47;;;;;;;28.30;18.60;;;;;;;;;;5051264;28;20016;-66
2022/12/15 15:44:14;;;;;;;28.15;19.25;;;;;;;;;;5052410;28;20051;-67
2022/12/15 15:46:49;;;;;;;31.73;19.02;;;;;;;;;;5052063;28;20033;-68
2022/12/15 15:49:19;;;;;;;37.47;20.00;;;;;;;;;;5048112;28;20088;-68
2022/12/15 15:51:44;;;;;;;33.90;20.98;;;;;;;;;;5049585;28;20020;-69
2022/12/15 15:54:11;;;;;;;34.63;19.02;;;;;;;;;;5049349;28;20028;-68
2022/12/15 15:56:37;;;;;;;35.03;19.13;;;;;;;;;;5036480;28;20094;-68
2022/12/15 15:59:13;;;;;;;33.97;19.85;;;;;;;;;;5051161;28;20078;-68
2022/12/15 16:01:38;;;;;;;32.38;20.27;;;;;;;;;;5049115;28;20032;-68
2022/12/15 16:04:05;;;;;;;30.67;20.35;;;;;;;;;;5049755;28;20033;-68
2022/12/15 16:06:30;;;;;;;35.40;19.95;;;;;;;;;;5049884;28;20483;-68
2022/12/15 16:08:55;;;;;;;32.35;18.67;;;;;;;;;;5049307;28;20064;-68
2022/12/15 16:11:21;;;;;;;33.63;21.08;;;;;;;;;;5050814;28;20784;-70
2022/12/15 16:13:47;;;;;;;32.78;21.67;;;;;;;;;;5050342;28;20124;-71
2022/12/15 16:16:20;;;;;;;34.25;20.85;;;;;;;;;;5051165;28;20017;-68
2022/12/15 16:18:45;;;;;;;35.60;21.90;;;;;;;;;;5049088;28;20028;-68
2022/12/15 16:21:12;;;;;;;37.80;22.45;;;;;;;;;;5043453;28;20025;-66
2022/12/15 16:23:38;;;;;;;37.97;23.65;;;;;;;;;;5045761;28;20094;-66
2022/12/15 16:26:04;;;;;;;39.47;23.75;;;;;;;;;;5050238;28;20716;-67
2022/12/15 16:28:30;;;;;;;34.92;23.83;;;;;;;;;;5049958;28;20036;-69
2022/12/15 16:30:57;;;;;;;43.80;24.65;;;;;;;;;;5047758;28;20078;-67
2022/12/15 16:33:22;;;;;;;43.50;27.25;;;;;;;;;;5050014;28;20029;-66
2022/12/15 16:35:48;;;;;;;43.22;25.42;;;;;;;;;;5049390;28;20032;-69
2022/12/15 16:38:16;;;;;;;37.13;24.85;;;;;;;;;;5050623;28;20036;-68
2022/12/15 16:40:41;;;;;;;42.70;26.05;;;;;;;;;;5051771;28;20537;-69
2022/12/15 16:43:13;;;;;;;44.63;25.58;;;;;;;;;;5050557;28;20025;-70
2022/12/15 16:45:41;;;;;;;43.72;26.63;;;;;;;;;;5023588;28;20028;-68
2022/12/15 16:48:06;;;;;;;37.72;25.73;;;;;;;;;;5005721;28;20043;-69
2022/12/15 16:50:33;;;;;;;48.40;27.38;;;;;;;;;;5009127;28;20048;-69